Hlavní strana
METAR-TAF:

METAR-TAF

Letiště :

Indianapolis, Indiana, Spojené státy americké

zeměpisná šířka: 39-49-30N, zeměpisná délka: 086-17-45W, výška: 250 m

Aktuální stav počasí

Zpráva byla vytvořena před 21 hodinami a 44 minutami, v 23:53 UTC
Jihojihozápadní vítr 5 kt
Teplota 27°C
Vlhkost vzduchu 74%
Tlak 1010 hPa
Viditelnost: 16.1 km
Jasno

METAR: KEYE 202353Z AUTO 20005KT 10SM CLR 27/22 A2982 RMK AO2 SLP091 60018 T02670217 10294 20244 55001

Čas: 17:37 (21:37 UTC)


TAF: chybějící

Stav a předpovědi počasí z více než 4 000 letišť (zprávy METAR a TAF).

Červené a žluté tečky na mapě představují dostupné meteorologické stanice.

Když kurzor umístíte na tečku, zobrazí se název stanice.

Pak kliknutím zobrazíte stav a předpověď počasí.

Chcete-li změnit mapu, kliknutím na zelené tlačítko se znaménkem +mapu přiblížíte, kliknutím na zelené tlačítko se znaménkem – mapu oddálíte a kliknutím na zelené šipky přejdete na sousední mapy.


METAR-TAF: